createdAt,value
2017-02-12T00:00:04.064Z,0
2017-02-12T00:01:04.043Z,0
2017-02-12T00:02:04.058Z,0
2017-02-12T00:03:04.033Z,0
2017-02-12T00:04:04.006Z,0
2017-02-12T00:05:03.986Z,0
2017-02-12T00:06:03.956Z,0
2017-02-12T00:07:03.567Z,0
2017-02-12T00:08:03.940Z,0
2017-02-12T00:09:03.964Z,0
2017-02-12T00:10:03.889Z,0
2017-02-12T00:11:03.900Z,0
2017-02-12T00:12:03.851Z,0
2017-02-12T00:13:03.902Z,0
2017-02-12T00:14:03.834Z,0
2017-02-12T00:15:03.841Z,0
2017-02-12T00:16:03.802Z,0
2017-02-12T00:17:03.792Z,0
2017-02-12T00:18:03.759Z,0
2017-02-12T00:19:03.751Z,0
2017-02-12T00:20:03.720Z,0
2017-02-12T00:21:03.718Z,0
2017-02-12T00:22:03.690Z,0
2017-02-12T00:23:03.599Z,0
2017-02-12T00:24:03.662Z,0
2017-02-12T00:25:03.661Z,0
2017-02-12T00:26:03.624Z,0
2017-02-12T00:27:03.633Z,0
2017-02-12T00:28:03.597Z,0
2017-02-12T00:29:03.589Z,0
2017-02-12T00:30:03.560Z,0
2017-02-12T00:31:03.558Z,0
2017-02-12T00:32:03.545Z,0
2017-02-12T00:33:03.510Z,0
2017-02-12T00:34:03.523Z,0
2017-02-12T00:35:03.492Z,0
2017-02-12T00:36:03.508Z,0
2017-02-12T00:37:03.436Z,0
2017-02-12T00:38:03.440Z,0
2017-02-12T00:39:03.435Z,0
2017-02-12T00:40:03.397Z,0
2017-02-12T00:41:03.389Z,0
2017-02-12T00:42:03.355Z,0
2017-02-12T00:43:03.353Z,0
2017-02-12T00:44:03.345Z,0
2017-02-12T00:45:03.322Z,0
2017-02-12T00:46:03.333Z,0
2017-02-12T00:47:03.270Z,0
2017-02-12T00:48:03.277Z,0
2017-02-12T00:49:03.263Z,0
2017-02-12T00:50:03.250Z,0
2017-02-12T00:51:03.227Z,0
2017-02-12T00:52:03.217Z,0
2017-02-12T00:53:03.172Z,0
2017-02-12T00:54:03.171Z,0
2017-02-12T00:55:03.169Z,0
2017-02-12T00:56:03.127Z,0
2017-02-12T00:57:03.128Z,0
2017-02-12T00:58:03.100Z,0
2017-02-12T00:59:03.111Z,0
2017-02-12T01:00:03.054Z,0
2017-02-12T01:01:03.061Z,0
2017-02-12T01:02:03.033Z,0
2017-02-12T01:03:03.039Z,0
2017-02-12T01:04:02.999Z,0
2017-02-12T01:05:02.988Z,0
2017-02-12T01:06:03.005Z,0
2017-02-12T01:07:02.952Z,0
2017-02-12T01:08:02.951Z,0
2017-02-12T01:09:02.926Z,0
2017-02-12T01:10:02.882Z,0
2017-02-12T01:11:02.891Z,0
2017-02-12T01:12:02.877Z,0
2017-02-12T01:13:02.876Z,0
2017-02-12T01:14:02.833Z,0
2017-02-12T01:15:02.836Z,0
2017-02-12T01:16:02.806Z,0
2017-02-12T01:17:02.831Z,0
2017-02-12T01:18:02.775Z,0
2017-02-12T01:19:02.776Z,0
2017-02-12T01:20:02.739Z,0
2017-02-12T01:21:02.726Z,0
2017-02-12T01:22:02.692Z,0
2017-02-12T01:23:02.687Z,0
2017-02-12T01:24:02.669Z,0
2017-02-12T01:25:02.653Z,0
2017-02-12T01:26:02.656Z,0
2017-02-12T01:27:02.619Z,0
2017-02-12T01:28:02.604Z,0
2017-02-12T01:29:02.582Z,0
2017-02-12T01:30:02.586Z,0
2017-02-12T01:31:02.559Z,0
2017-02-12T01:32:02.554Z,0
2017-02-12T01:33:02.512Z,0
2017-02-12T01:34:02.517Z,0
2017-02-12T01:35:02.541Z,0
2017-02-12T01:36:02.472Z,0
2017-02-12T01:37:02.466Z,0
2017-02-12T01:38:02.418Z,0
2017-02-12T01:39:02.423Z,0
2017-02-12T01:40:02.420Z,0
2017-02-12T01:41:02.390Z,0
2017-02-12T01:42:02.376Z,0
2017-02-12T01:43:02.337Z,0
2017-02-12T01:44:02.347Z,0
2017-02-12T01:45:02.314Z,0
2017-02-12T01:46:02.313Z,0
2017-02-12T01:47:02.261Z,0
2017-02-12T01:48:02.283Z,0
2017-02-12T01:49:02.242Z,0
2017-02-12T01:50:02.238Z,0
2017-02-12T01:51:02.215Z,0
2017-02-12T01:52:02.214Z,0
2017-02-12T01:53:02.180Z,0
2017-02-12T01:54:02.182Z,0
2017-02-12T01:55:02.167Z,0
2017-02-12T01:56:02.128Z,0
2017-02-12T01:57:02.114Z,0
2017-02-12T01:58:02.104Z,0
2017-02-12T01:59:02.091Z,0
2017-02-12T02:00:01.672Z,0
2017-02-12T02:01:02.059Z,0
2017-02-12T02:02:02.043Z,0
2017-02-12T02:03:02.011Z,0
2017-02-12T02:04:02.011Z,0
2017-02-12T02:05:01.988Z,0
2017-02-12T02:06:01.985Z,0
2017-02-12T02:07:01.567Z,0
2017-02-12T02:08:01.944Z,0
2017-02-12T02:09:01.913Z,0
2017-02-12T02:10:01.912Z,0
2017-02-12T02:11:01.897Z,0
2017-02-12T02:12:01.884Z,0
2017-02-12T02:13:01.855Z,0
2017-02-12T02:14:01.826Z,0
2017-02-12T02:15:01.835Z,0
2017-02-12T02:16:01.796Z,0
2017-02-12T02:17:01.795Z,0
2017-02-12T02:18:01.779Z,0
2017-02-12T02:19:01.762Z,0
2017-02-12T02:20:01.735Z,0
2017-02-12T02:21:01.730Z,0
2017-02-12T02:22:01.706Z,0
2017-02-12T02:23:01.700Z,0
2017-02-12T02:24:01.687Z,0
2017-02-12T02:25:01.663Z,0
2017-02-12T02:26:01.670Z,0
2017-02-12T02:27:01.633Z,0
2017-02-12T02:28:01.612Z,0
2017-02-12T02:29:01.586Z,0
2017-02-12T02:30:01.560Z,0
2017-02-12T02:31:01.576Z,0
2017-02-12T02:32:01.531Z,0
2017-02-12T02:33:01.544Z,0
2017-02-12T02:34:01.496Z,0
2017-02-12T02:35:01.505Z,0
2017-02-12T02:36:01.472Z,0
2017-02-12T02:37:01.462Z,0
2017-02-12T02:38:01.456Z,0
2017-02-12T02:39:01.443Z,0
2017-02-12T02:40:01.415Z,0
2017-02-12T02:41:01.389Z,0
2017-02-12T02:42:01.358Z,0
2017-02-12T02:43:01.356Z,0
2017-02-12T02:44:01.339Z,0
2017-02-12T02:45:01.328Z,0
2017-02-12T02:46:01.317Z,0
2017-02-12T02:47:01.279Z,0
2017-02-12T02:48:01.281Z,0
2017-02-12T02:49:01.252Z,0
2017-02-12T02:50:01.250Z,0
2017-02-12T02:51:01.210Z,0
2017-02-12T02:52:01.218Z,0
2017-02-12T02:53:01.193Z,0
2017-02-12T02:54:01.170Z,0
2017-02-12T02:55:01.172Z,0
2017-02-12T02:56:01.148Z,0
2017-02-12T02:57:01.133Z,0
2017-02-12T02:58:01.087Z,0
2017-02-12T02:59:01.089Z,0
2017-02-12T03:00:01.075Z,0
2017-02-12T03:01:01.061Z,0
2017-02-12T03:02:01.058Z,0
2017-02-12T03:03:01.029Z,0
2017-02-12T03:04:01.018Z,0
2017-02-12T03:05:00.985Z,0
2017-02-12T03:06:00.992Z,0
2017-02-12T03:07:00.559Z,0
2017-02-12T03:08:00.959Z,0
2017-02-12T03:09:00.935Z,0
2017-02-12T03:10:00.937Z,0
2017-02-12T03:11:00.882Z,0
2017-02-12T03:12:00.865Z,0
2017-02-12T03:13:00.854Z,0
2017-02-12T03:14:00.863Z,0
2017-02-12T03:15:00.833Z,0
2017-02-12T03:16:00.836Z,0
2017-02-12T03:17:00.785Z,0
2017-02-12T03:18:00.822Z,0
2017-02-12T03:19:00.758Z,0
2017-02-12T03:20:00.744Z,0
2017-02-12T03:21:00.722Z,0
2017-02-12T03:22:00.733Z,0
2017-02-12T03:23:00.681Z,0
2017-02-12T03:24:00.686Z,0
2017-02-12T03:25:00.651Z,0
2017-02-12T03:26:00.654Z,0
2017-02-12T03:27:00.612Z,0
2017-02-12T03:28:00.607Z,0
2017-02-12T03:29:00.603Z,0
2017-02-12T03:30:00.581Z,0
2017-02-12T03:31:00.570Z,0
2017-02-12T03:32:00.538Z,0
2017-02-12T03:33:00.533Z,0
2017-02-12T03:34:00.496Z,0
2017-02-12T03:35:00.512Z,0
2017-02-12T03:36:00.474Z,0
2017-02-12T03:37:00.502Z,0
2017-02-12T03:38:00.435Z,0
2017-02-12T03:39:00.433Z,0
2017-02-12T03:40:00.399Z,0
2017-02-12T03:41:00.399Z,0
2017-02-12T03:42:00.373Z,0
2017-02-12T03:43:00.370Z,0
2017-02-12T03:44:00.344Z,0
2017-02-12T03:45:00.338Z,0
2017-02-12T03:46:00.320Z,0
2017-02-12T03:47:00.314Z,0
2017-02-12T03:48:00.286Z,0
2017-02-12T03:49:00.268Z,0
2017-02-12T03:50:00.237Z,0
2017-02-12T03:50:59.844Z,0
2017-02-12T03:52:00.231Z,0
2017-02-12T03:53:00.219Z,0
2017-02-12T03:54:00.178Z,0
2017-02-12T03:55:00.180Z,0
2017-02-12T03:56:00.148Z,0
2017-02-12T03:57:00.137Z,0
2017-02-12T03:58:00.118Z,0
2017-02-12T03:59:00.088Z,0
2017-02-12T04:00:00.092Z,0
2017-02-12T04:01:00.056Z,0
2017-02-12T04:02:00.068Z,0
2017-02-12T04:03:00.042Z,0
2017-02-12T04:04:00.003Z,0
2017-02-12T04:05:00.000Z,0
2017-02-12T04:05:59.981Z,0
2017-02-12T04:06:59.579Z,0
2017-02-12T04:07:59.935Z,0
2017-02-12T04:08:59.921Z,0
2017-02-12T04:09:59.923Z,0
2017-02-12T04:10:59.896Z,0
2017-02-12T04:11:59.895Z,0
2017-02-12T04:12:59.849Z,0
2017-02-12T04:13:59.863Z,0
2017-02-12T04:14:59.815Z,0
2017-02-12T04:15:59.823Z,0
2017-02-12T04:16:59.787Z,0
2017-02-12T04:17:59.799Z,0
2017-02-12T04:18:59.770Z,0
2017-02-12T04:19:59.782Z,0
2017-02-12T04:20:59.731Z,0
2017-02-12T04:21:59.705Z,0
2017-02-12T04:22:59.707Z,0
2017-02-12T04:23:59.680Z,0
2017-02-12T04:24:59.672Z,0
2017-02-12T04:25:59.649Z,0
2017-02-12T04:26:59.644Z,0
2017-02-12T04:27:59.609Z,0
2017-02-12T04:28:59.617Z,0
2017-02-12T04:29:59.586Z,0
2017-02-12T04:30:59.567Z,0
2017-02-12T04:31:59.542Z,0
2017-02-12T04:32:59.530Z,0
2017-02-12T04:33:59.503Z,0
2017-02-12T04:34:59.517Z,0
2017-02-12T04:35:59.492Z,0
2017-02-12T04:36:59.460Z,0
2017-02-12T04:37:59.429Z,0
2017-02-12T04:38:59.455Z,0
2017-02-12T04:39:59.416Z,0
2017-02-12T04:40:59.409Z,0
2017-02-12T04:41:59.388Z,0
2017-02-12T04:42:59.403Z,0
2017-02-12T04:43:59.335Z,0
2017-02-12T04:44:59.340Z,0
2017-02-12T04:45:59.314Z,0
2017-02-12T04:46:59.322Z,0
2017-02-12T04:47:59.289Z,0
2017-02-12T04:48:58.886Z,0
2017-02-12T04:49:59.238Z,0
2017-02-12T04:50:59.225Z,0
2017-02-12T04:51:59.221Z,0
2017-02-12T04:52:59.207Z,0
2017-02-12T04:53:59.196Z,0
2017-02-12T04:54:59.156Z,0
2017-02-12T04:55:59.161Z,0
2017-02-12T04:56:58.743Z,0
2017-02-12T04:57:59.127Z,0
2017-02-12T04:58:59.099Z,0
2017-02-12T04:59:59.084Z,0
2017-02-12T05:00:59.069Z,0
2017-02-12T05:01:59.050Z,0
2017-02-12T05:02:59.045Z,0
2017-02-12T05:03:59.023Z,0
2017-02-12T05:04:59.008Z,0
2017-02-12T05:05:58.973Z,0
2017-02-12T05:06:58.572Z,0
2017-02-12T05:07:58.968Z,0
2017-02-12T05:08:58.944Z,0
2017-02-12T05:09:58.940Z,0
2017-02-12T05:10:58.887Z,0
2017-02-12T05:11:58.902Z,0
2017-02-12T05:12:58.871Z,0
2017-02-12T05:13:58.868Z,0
2017-02-12T05:14:58.836Z,0
2017-02-12T05:15:58.832Z,0
2017-02-12T05:16:58.801Z,0
2017-02-12T05:17:58.816Z,0
2017-02-12T05:18:58.759Z,0
2017-02-12T05:19:58.761Z,0
2017-02-12T05:20:58.754Z,0
2017-02-12T05:21:58.732Z,0
2017-02-12T05:22:58.720Z,0
2017-02-12T05:23:58.709Z,0
2017-02-12T05:24:58.666Z,0
2017-02-12T05:25:58.662Z,0
2017-02-12T05:26:58.632Z,0
2017-02-12T05:27:58.625Z,0
2017-02-12T05:28:58.581Z,0
2017-02-12T05:29:58.599Z,0
2017-02-12T05:30:58.563Z,0
2017-02-12T05:31:58.571Z,0
2017-02-12T05:32:58.545Z,0
2017-02-12T05:33:58.541Z,0
2017-02-12T05:34:58.503Z,0
2017-02-12T05:35:58.490Z,0
2017-02-12T05:36:58.474Z,0
2017-02-12T05:37:58.470Z,0
2017-02-12T05:38:58.470Z,0
2017-02-12T05:39:58.424Z,0
2017-02-12T05:40:58.414Z,0
2017-02-12T05:41:58.403Z,0
2017-02-12T05:42:58.362Z,0
2017-02-12T05:43:58.361Z,0
2017-02-12T05:44:58.338Z,0
2017-02-12T05:45:58.351Z,0
2017-02-12T05:46:58.295Z,0
2017-02-12T05:47:58.316Z,0
2017-02-12T05:48:57.875Z,0
2017-02-12T05:49:58.299Z,0
2017-02-12T05:50:58.240Z,0
2017-02-12T05:51:58.237Z,0
2017-02-12T05:52:58.207Z,0
2017-02-12T05:53:58.185Z,0
2017-02-12T05:54:58.177Z,0
2017-02-12T05:55:58.155Z,0
2017-02-12T05:56:58.174Z,0
2017-02-12T05:57:58.132Z,4
2017-02-12T05:58:58.103Z,4
2017-02-12T05:59:58.090Z,0
2017-02-12T06:00:58.050Z,4
2017-02-12T06:01:58.068Z,4
2017-02-12T06:02:58.038Z,0
2017-02-12T06:03:58.044Z,4
2017-02-12T06:04:58.002Z,4
2017-02-12T06:05:57.992Z,4
2017-02-12T06:06:57.581Z,4
2017-02-12T06:07:57.944Z,8
2017-02-12T06:08:57.535Z,8
2017-02-12T06:09:57.935Z,8
2017-02-12T06:10:57.918Z,12
2017-02-12T06:11:57.876Z,12
2017-02-12T06:12:57.874Z,16
2017-02-12T06:13:57.845Z,16
2017-02-12T06:14:57.862Z,20
2017-02-12T06:15:57.833Z,24
2017-02-12T06:16:57.800Z,28
2017-02-12T06:17:57.808Z,32
2017-02-12T06:18:57.776Z,32
2017-02-12T06:19:57.769Z,40
2017-02-12T06:20:57.745Z,44
2017-02-12T06:21:57.743Z,52
2017-02-12T06:22:57.701Z,56
2017-02-12T06:23:57.698Z,60
2017-02-12T06:24:57.675Z,64
2017-02-12T06:25:57.679Z,72
2017-02-12T06:26:57.655Z,76
2017-02-12T06:27:57.621Z,84
2017-02-12T06:28:57.606Z,92
2017-02-12T06:29:57.582Z,96
2017-02-12T06:30:57.583Z,104
2017-02-12T06:31:57.546Z,112
2017-02-12T06:32:57.161Z,116
2017-02-12T06:33:57.509Z,124
2017-02-12T06:34:57.514Z,136
2017-02-12T06:35:57.484Z,144
2017-02-12T06:36:57.092Z,152
2017-02-12T06:37:57.459Z,168
2017-02-12T06:38:57.451Z,172
2017-02-12T06:39:57.430Z,188
2017-02-12T06:40:57.412Z,192
2017-02-12T06:41:57.364Z,200
2017-02-12T06:42:57.391Z,212
2017-02-12T06:43:57.353Z,220
2017-02-12T06:44:57.346Z,232
2017-02-12T06:45:57.312Z,248
2017-02-12T06:46:57.314Z,260
2017-02-12T06:47:57.296Z,268
2017-02-12T06:48:57.291Z,284
2017-02-12T06:49:57.244Z,296
2017-02-12T06:50:57.248Z,308
2017-02-12T06:51:57.223Z,324
2017-02-12T06:52:57.223Z,340
2017-02-12T06:53:57.229Z,360
2017-02-12T06:54:57.437Z,396
2017-02-12T06:55:57.154Z,424
2017-02-12T06:56:57.147Z,440
2017-02-12T06:57:57.120Z,452
2017-02-12T06:58:57.104Z,456
2017-02-12T06:59:57.095Z,468
2017-02-12T07:00:57.080Z,480
2017-02-12T07:01:57.071Z,512
2017-02-12T07:02:57.028Z,540
2017-02-12T07:03:57.032Z,556
2017-02-12T07:04:56.994Z,572
2017-02-12T07:05:57.003Z,600
2017-02-12T07:06:56.953Z,636
2017-02-12T07:07:56.566Z,664
2017-02-12T07:08:56.935Z,688
2017-02-12T07:09:56.908Z,712
2017-02-12T07:10:56.919Z,740
2017-02-12T07:11:56.902Z,772
2017-02-12T07:12:56.884Z,800
2017-02-12T07:13:56.841Z,828
2017-02-12T07:14:56.837Z,860
2017-02-12T07:15:56.437Z,896
2017-02-12T07:16:56.817Z,932
2017-02-12T07:17:56.811Z,968
2017-02-12T07:18:56.764Z,992
2017-02-12T07:19:56.766Z,1020
2017-02-12T07:20:56.749Z,1060
2017-02-12T07:21:56.715Z,1096
2017-02-12T07:22:56.716Z,1132
2017-02-12T07:23:56.672Z,1180
2017-02-12T07:24:56.685Z,1236
2017-02-12T07:25:56.648Z,1288
2017-02-12T07:26:56.654Z,1336
2017-02-12T07:27:56.629Z,1372
2017-02-12T07:28:56.626Z,1404
2017-02-12T07:29:56.586Z,1428
2017-02-12T07:30:56.570Z,1456
2017-02-12T07:31:56.578Z,1492
2017-02-12T07:32:56.546Z,1524
2017-02-12T07:33:56.523Z,1572
2017-02-12T07:34:56.523Z,1628
2017-02-12T07:35:56.502Z,1672
2017-02-12T07:36:56.487Z,1716
2017-02-12T07:37:56.457Z,1756
2017-02-12T07:38:56.467Z,1784
2017-02-12T07:39:56.419Z,1836
2017-02-12T07:40:56.425Z,1888
2017-02-12T07:41:56.388Z,1928
2017-02-12T07:42:56.389Z,1944
2017-02-12T07:43:56.415Z,1980
2017-02-12T07:44:56.348Z,2028
2017-02-12T07:45:56.327Z,2084
2017-02-12T07:46:56.311Z,2128
2017-02-12T07:47:56.308Z,2144
2017-02-12T07:48:56.286Z,2144
2017-02-12T07:49:56.279Z,2180
2017-02-12T07:50:56.247Z,2224
2017-02-12T07:51:56.231Z,2232
2017-02-12T07:52:56.195Z,2228
2017-02-12T07:53:56.225Z,2228
2017-02-12T07:54:56.183Z,2244
2017-02-12T07:55:56.189Z,2276
2017-02-12T07:56:56.159Z,2320
2017-02-12T07:57:56.157Z,2368
2017-02-12T07:58:56.119Z,2396
2017-02-12T07:59:56.101Z,2448
2017-02-12T08:00:56.091Z,2476
2017-02-12T08:01:56.059Z,2508
2017-02-12T08:02:56.045Z,2536
2017-02-12T08:03:56.038Z,2596
2017-02-12T08:04:56.021Z,2648
2017-02-12T08:05:56.011Z,2680
2017-02-12T08:06:55.992Z,2720
2017-02-12T08:07:55.980Z,2772
2017-02-12T08:08:55.941Z,2816
2017-02-12T08:09:55.976Z,2832
2017-02-12T08:10:55.907Z,2852
2017-02-12T08:11:55.913Z,2900
2017-02-12T08:12:55.885Z,2952
2017-02-12T08:13:55.890Z,2956
2017-02-12T08:14:55.846Z,2976
2017-02-12T08:15:55.834Z,3024
2017-02-12T08:16:55.826Z,3092
2017-02-12T08:17:55.849Z,3156
2017-02-12T08:18:55.416Z,3192
2017-02-12T08:19:55.781Z,3228
2017-02-12T08:20:55.763Z,3248
2017-02-12T08:21:55.734Z,3288
2017-02-12T08:22:55.743Z,3344
2017-02-12T08:23:55.716Z,3364
2017-02-12T08:24:55.702Z,3412
2017-02-12T08:25:55.691Z,3468
2017-02-12T08:26:55.675Z,3512
2017-02-12T08:27:55.663Z,3564
2017-02-12T08:28:55.631Z,3636
2017-02-12T08:29:55.635Z,3720
2017-02-12T08:30:55.591Z,3840
2017-02-12T08:31:55.589Z,3896
2017-02-12T08:32:55.566Z,3884
2017-02-12T08:33:55.577Z,3916
2017-02-12T08:34:55.559Z,3972
2017-02-12T08:35:55.521Z,4024
2017-02-12T08:36:55.504Z,4080
2017-02-12T08:37:55.470Z,4140
2017-02-12T08:38:55.484Z,4196
2017-02-12T08:39:55.464Z,4264
2017-02-12T08:40:55.451Z,4332
2017-02-12T08:41:55.429Z,4404
2017-02-12T08:42:55.416Z,4500
2017-02-12T08:43:55.399Z,4588
2017-02-12T08:44:55.390Z,4644
2017-02-12T08:45:55.366Z,4728
2017-02-12T08:46:55.358Z,4808
2017-02-12T08:47:55.333Z,4852
2017-02-12T08:48:55.318Z,4888
2017-02-12T08:49:55.283Z,4916
2017-02-12T08:50:55.301Z,4936
2017-02-12T08:51:55.278Z,5000
2017-02-12T08:52:55.250Z,5140
2017-02-12T08:53:55.231Z,5280
2017-02-12T08:54:55.234Z,5348
2017-02-12T08:55:55.210Z,5380
2017-02-12T08:56:55.199Z,5388
2017-02-12T08:57:55.185Z,5420
2017-02-12T08:58:55.175Z,5472
2017-02-12T08:59:55.146Z,5496
2017-02-12T09:00:55.130Z,5520
2017-02-12T09:01:55.100Z,5596
2017-02-12T09:02:55.114Z,5656
2017-02-12T09:03:55.082Z,5708
2017-02-12T09:04:55.069Z,5760
2017-02-12T09:05:55.038Z,5828
2017-02-12T09:06:55.031Z,5872
2017-02-12T09:07:55.031Z,5864
2017-02-12T09:08:55.011Z,5872
2017-02-12T09:09:55.049Z,5892
2017-02-12T09:10:54.958Z,5888
2017-02-12T09:11:54.960Z,5912
2017-02-12T09:12:54.938Z,6016
2017-02-12T09:13:54.939Z,6140
2017-02-12T09:14:54.952Z,6208
2017-02-12T09:15:54.896Z,6276
2017-02-12T09:16:54.899Z,6372
2017-02-12T09:17:54.905Z,6484
2017-02-12T09:18:54.870Z,6568
2017-02-12T09:19:54.890Z,6636
2017-02-12T09:20:54.824Z,6712
2017-02-12T09:21:54.803Z,6840
2017-02-12T09:22:54.787Z,6980
2017-02-12T09:23:54.773Z,6996
2017-02-12T09:24:54.768Z,7036
2017-02-12T09:25:54.765Z,7124
2017-02-12T09:26:54.718Z,7188
2017-02-12T09:27:54.722Z,7248
2017-02-12T09:28:54.692Z,7352
2017-02-12T09:29:54.734Z,7420
2017-02-12T09:30:54.668Z,7468
2017-02-12T09:31:54.679Z,7620
2017-02-12T09:32:54.627Z,7732
2017-02-12T09:33:54.647Z,7752
2017-02-12T09:34:54.603Z,7860
2017-02-12T09:35:54.591Z,7964
2017-02-12T09:36:54.572Z,8084
2017-02-12T09:37:54.577Z,8128
2017-02-12T09:38:54.563Z,8144
2017-02-12T09:39:54.544Z,8128
2017-02-12T09:40:54.520Z,8144
2017-02-12T09:41:54.517Z,8124
2017-02-12T09:42:54.476Z,8284
2017-02-12T09:43:54.493Z,8424
2017-02-12T09:44:54.445Z,8520
2017-02-12T09:45:54.464Z,8700
2017-02-12T09:46:54.428Z,8908
2017-02-12T09:47:54.436Z,8948
2017-02-12T09:48:54.395Z,8988
2017-02-12T09:49:54.400Z,9104
2017-02-12T09:50:54.374Z,9044
2017-02-12T09:51:54.368Z,9092
2017-02-12T09:52:54.350Z,9188
2017-02-12T09:53:54.345Z,9352
2017-02-12T09:54:54.324Z,9456
2017-02-12T09:55:54.309Z,9496
2017-02-12T09:56:54.296Z,9516
2017-02-12T09:57:54.269Z,9512
2017-02-12T09:58:54.266Z,9432
2017-02-12T09:59:54.255Z,9444
2017-02-12T10:00:54.245Z,9504
2017-02-12T10:01:54.204Z,9504
2017-02-12T10:02:54.218Z,9524
2017-02-12T10:03:54.178Z,9528
2017-02-12T10:04:54.195Z,9620
2017-02-12T10:05:54.153Z,9780
2017-02-12T10:06:53.769Z,9916
2017-02-12T10:07:54.129Z,10000
2017-02-12T10:08:54.116Z,10172
2017-02-12T10:09:54.121Z,10344
2017-02-12T10:10:54.108Z,10564
2017-02-12T10:11:54.068Z,10744
2017-02-12T10:12:54.058Z,10884
2017-02-12T10:13:54.036Z,10948
2017-02-12T10:14:54.056Z,10892
2017-02-12T10:15:54.024Z,10820
2017-02-12T10:16:54.024Z,10888
2017-02-12T10:17:54.007Z,10952
2017-02-12T10:18:53.606Z,10952
2017-02-12T10:19:53.977Z,10972
2017-02-12T10:20:53.954Z,11008
2017-02-12T10:21:53.937Z,10920
2017-02-12T10:22:53.944Z,10828
2017-02-12T10:23:53.913Z,10888
2017-02-12T10:24:53.904Z,10764
2017-02-12T10:25:53.881Z,10612
2017-02-12T10:26:53.855Z,10660
2017-02-12T10:27:53.865Z,10636
2017-02-12T10:28:53.849Z,10572
2017-02-12T10:29:53.841Z,10452
2017-02-12T10:30:53.817Z,10328
2017-02-12T10:31:53.812Z,10304
2017-02-12T10:32:53.787Z,10180
2017-02-12T10:33:53.766Z,10204
2017-02-12T10:34:53.776Z,10364
2017-02-12T10:35:53.738Z,10436
2017-02-12T10:36:53.753Z,10636
2017-02-12T10:37:53.713Z,10732
2017-02-12T10:38:53.716Z,10844
2017-02-12T10:39:53.701Z,10900
2017-02-12T10:40:53.693Z,10856
2017-02-12T10:41:53.668Z,10872
2017-02-12T10:42:53.646Z,10808
2017-02-12T10:43:53.650Z,10812
2017-02-12T10:44:53.690Z,10816
2017-02-12T10:45:53.612Z,10824
2017-02-12T10:46:53.619Z,10700
2017-02-12T10:47:53.590Z,10576
2017-02-12T10:48:53.591Z,10568
2017-02-12T10:49:53.549Z,10484
2017-02-12T10:50:53.559Z,10504
2017-02-12T10:51:53.535Z,10516
2017-02-12T10:52:53.526Z,10552
2017-02-12T10:53:53.487Z,10636
2017-02-12T10:54:53.505Z,10736
2017-02-12T10:55:53.490Z,10892
2017-02-12T10:56:53.469Z,10920
2017-02-12T10:57:53.441Z,11020
2017-02-12T10:58:53.454Z,11036
2017-02-12T10:59:53.429Z,11060
2017-02-12T11:00:53.410Z,11020
2017-02-12T11:01:53.383Z,10992
2017-02-12T11:02:53.431Z,10996
2017-02-12T11:03:53.364Z,11036
2017-02-12T11:04:53.384Z,11012
2017-02-12T11:05:53.337Z,10964
2017-02-12T11:06:53.344Z,10804
2017-02-12T11:07:53.304Z,10780
2017-02-12T11:08:53.319Z,10948
2017-02-12T11:09:53.332Z,11132
2017-02-12T11:10:53.297Z,11148
2017-02-12T11:11:53.269Z,11128
2017-02-12T11:12:53.251Z,11264
2017-02-12T11:13:53.229Z,11252
2017-02-12T11:14:53.214Z,11108
2017-02-12T11:15:53.218Z,11120
2017-02-12T11:16:53.202Z,11176
2017-02-12T11:17:53.200Z,11256
2017-02-12T11:18:53.175Z,11264
2017-02-12T11:19:53.158Z,11120
2017-02-12T11:20:53.120Z,11088
2017-02-12T11:21:53.141Z,11152
2017-02-12T11:22:53.119Z,11192
2017-02-12T11:23:53.101Z,11172
2017-02-12T11:24:53.095Z,11176
2017-02-12T11:25:53.072Z,11156
2017-02-12T11:26:53.118Z,11140
2017-02-12T11:27:53.050Z,11068
2017-02-12T11:28:53.042Z,11072
2017-02-12T11:29:53.007Z,11108
2017-02-12T11:30:52.991Z,11028
2017-02-12T11:31:53.007Z,10924
2017-02-12T11:32:52.999Z,11044
2017-02-12T11:33:52.984Z,11176
2017-02-12T11:34:52.953Z,11328
2017-02-12T11:35:52.949Z,11344
2017-02-12T11:36:52.971Z,11196
2017-02-12T11:37:52.919Z,11120
2017-02-12T11:38:52.909Z,11072
2017-02-12T11:39:52.907Z,11120
2017-02-12T11:40:52.877Z,11184
2017-02-12T11:41:52.877Z,11296
2017-02-12T11:42:52.831Z,11440
2017-02-12T11:43:52.456Z,11516
2017-02-12T11:44:52.831Z,11532
2017-02-12T11:45:52.828Z,11492
2017-02-12T11:46:52.812Z,11400
2017-02-12T11:47:52.773Z,11360
2017-02-12T11:48:52.762Z,11128
2017-02-12T11:49:52.774Z,11016
2017-02-12T11:50:52.735Z,10880
2017-02-12T11:51:52.732Z,10840
2017-02-12T11:52:52.328Z,10776
2017-02-12T11:53:52.716Z,10584
2017-02-12T11:54:52.683Z,10420
2017-02-12T11:55:52.687Z,10296
2017-02-12T11:56:52.272Z,10184
2017-02-12T11:57:52.319Z,10172
2017-02-12T11:58:52.254Z,10268
2017-02-12T11:59:52.629Z,10304
2017-02-12T12:00:52.208Z,10304
2017-02-12T12:01:52.227Z,10320
2017-02-12T12:02:52.600Z,10348
2017-02-12T12:03:52.177Z,10348
2017-02-12T12:04:52.178Z,10364
2017-02-12T12:05:52.147Z,10264
2017-02-12T12:06:52.159Z,10200
2017-02-12T12:07:52.126Z,10268
2017-02-12T12:08:52.517Z,10368
2017-02-12T12:09:52.490Z,10372
2017-02-12T12:10:52.105Z,10352
2017-02-12T12:11:52.086Z,10392
2017-02-12T12:12:52.488Z,10368
2017-02-12T12:13:52.442Z,10424
2017-02-12T12:14:52.438Z,10412
2017-02-12T12:15:52.457Z,10520
2017-02-12T12:16:52.413Z,10372
2017-02-12T12:17:52.403Z,10232
2017-02-12T12:18:52.388Z,10056
2017-02-12T12:19:52.365Z,10004
2017-02-12T12:20:52.357Z,10072
2017-02-12T12:21:52.327Z,10136
2017-02-12T12:22:52.329Z,10124
2017-02-12T12:23:52.323Z,10064
2017-02-12T12:24:52.327Z,10108
2017-02-12T12:25:51.906Z,10120
2017-02-12T12:26:52.285Z,10064
2017-02-12T12:27:52.257Z,10000
2017-02-12T12:28:52.241Z,9952
2017-02-12T12:29:52.261Z,9972
2017-02-12T12:30:52.211Z,9996
2017-02-12T12:31:52.226Z,9936
2017-02-12T12:32:52.191Z,9840
2017-02-12T12:33:52.222Z,9812
2017-02-12T12:34:52.190Z,9900
2017-02-12T12:35:52.167Z,9900
2017-02-12T12:36:52.147Z,9812
2017-02-12T12:37:52.122Z,9864
2017-02-12T12:38:52.136Z,10064
2017-02-12T12:39:52.110Z,9968
2017-02-12T12:40:52.085Z,9840
2017-02-12T12:41:52.108Z,9792
2017-02-12T12:42:52.060Z,9732
2017-02-12T12:43:52.078Z,9716
2017-02-12T12:44:52.041Z,9736
2017-02-12T12:45:52.037Z,9652
2017-02-12T12:46:51.996Z,9636
2017-02-12T12:47:52.010Z,9652
2017-02-12T12:48:51.988Z,9604
2017-02-12T12:49:51.978Z,9576
2017-02-12T12:50:51.965Z,9460
2017-02-12T12:51:51.941Z,9392
2017-02-12T12:52:51.937Z,9344
2017-02-12T12:53:51.914Z,9396
2017-02-12T12:54:51.925Z,9420
2017-02-12T12:55:51.890Z,9392
2017-02-12T12:56:51.907Z,9192
2017-02-12T12:57:51.864Z,9108
2017-02-12T12:58:51.869Z,9108
2017-02-12T12:59:51.819Z,9052
2017-02-12T13:00:51.832Z,8984
2017-02-12T13:01:51.822Z,8932
2017-02-12T13:02:51.812Z,8888
2017-02-12T13:03:51.788Z,8776
2017-02-12T13:04:51.778Z,8748
2017-02-12T13:05:51.749Z,8808
2017-02-12T13:06:52.055Z,8724
2017-02-12T13:07:51.735Z,8644
2017-02-12T13:08:51.728Z,8636
2017-02-12T13:09:51.298Z,8560
2017-02-12T13:10:51.708Z,8568
2017-02-12T13:11:51.672Z,8548
2017-02-12T13:12:51.683Z,8516
2017-02-12T13:13:51.656Z,8496
2017-02-12T13:14:51.652Z,8416
2017-02-12T13:15:51.613Z,8336
2017-02-12T13:16:51.624Z,8320
2017-02-12T13:17:51.603Z,8276
2017-02-12T13:18:51.622Z,8260
2017-02-12T13:19:51.580Z,8164
2017-02-12T13:20:51.620Z,8072
2017-02-12T13:21:51.528Z,7976
2017-02-12T13:22:51.530Z,7804
2017-02-12T13:23:51.523Z,7700
2017-02-12T13:24:51.510Z,7648
2017-02-12T13:25:51.503Z,7592
2017-02-12T13:26:51.461Z,7508
2017-02-12T13:27:51.464Z,7464
2017-02-12T13:28:51.447Z,7452
2017-02-12T13:29:51.461Z,7436
2017-02-12T13:30:51.419Z,7408
2017-02-12T13:31:51.406Z,7368
2017-02-12T13:32:51.408Z,7328
2017-02-12T13:33:51.378Z,7328
2017-02-12T13:34:51.382Z,7208
2017-02-12T13:35:51.366Z,7140
2017-02-12T13:36:51.348Z,7088
2017-02-12T13:37:51.312Z,7064
2017-02-12T13:38:51.313Z,7048
2017-02-12T13:39:51.314Z,6928
2017-02-12T13:40:51.306Z,6812
2017-02-12T13:41:51.284Z,6704
2017-02-12T13:42:51.262Z,6612
2017-02-12T13:43:51.252Z,6616
2017-02-12T13:44:51.228Z,6692
2017-02-12T13:45:51.225Z,6696
2017-02-12T13:46:51.197Z,6764
2017-02-12T13:47:51.210Z,6764
2017-02-12T13:48:51.173Z,6652
2017-02-12T13:49:51.186Z,6544
2017-02-12T13:50:51.151Z,6492
2017-02-12T13:51:51.141Z,6468
2017-02-12T13:52:51.118Z,6408